createdAt,value
2017-12-20T00:00:44.009Z,83.13
2017-12-20T00:01:55.469Z,83.08
2017-12-20T00:03:05.528Z,83.04
2017-12-20T00:04:15.381Z,82.98
2017-12-20T00:05:25.459Z,83.04
2017-12-20T00:06:35.264Z,82.85
2017-12-20T00:07:45.331Z,83.04
2017-12-20T00:08:55.127Z,83.17
2017-12-20T00:10:04.920Z,83.13
2017-12-20T00:11:14.993Z,83.23
2017-12-20T00:12:25.058Z,83.13
2017-12-20T00:13:34.580Z,82.85
2017-12-20T00:14:44.644Z,83.04
2017-12-20T00:15:54.698Z,82.85
2017-12-20T00:17:04.496Z,82.66
2017-12-20T00:18:15.697Z,83.04
2017-12-20T00:19:25.758Z,83.13
2017-12-20T00:20:35.562Z,83.13
2017-12-20T00:21:45.647Z,83.13
2017-12-20T00:22:55.166Z,83.04
2017-12-20T00:24:05.292Z,83.23
2017-12-20T00:25:15.340Z,83.13
2017-12-20T00:26:25.391Z,82.85
2017-12-20T00:27:35.180Z,83.04
2017-12-20T00:28:45.234Z,82.85
2017-12-20T00:29:55.290Z,83.13
2017-12-20T00:31:04.818Z,83.04
2017-12-20T00:32:14.621Z,82.85
2017-12-20T00:33:24.654Z,82.85
2017-12-20T00:34:34.460Z,83.04
2017-12-20T00:35:44.323Z,82.94
2017-12-20T00:36:54.365Z,83.04
2017-12-20T00:38:04.426Z,83.04
2017-12-20T00:39:14.218Z,83.04
2017-12-20T00:40:24.004Z,82.66
2017-12-20T00:41:34.052Z,83.23
2017-12-20T00:42:44.101Z,82.75
2017-12-20T00:43:53.626Z,82.94
2017-12-20T00:45:03.734Z,82.94
2017-12-20T00:46:13.527Z,82.79
2017-12-20T00:47:23.618Z,82.98
2017-12-20T00:48:33.509Z,83.08
2017-12-20T00:49:43.566Z,83.08
2017-12-20T00:50:53.614Z,83.17
2017-12-20T00:52:03.399Z,83.17
2017-12-20T00:53:12.932Z,83.17
2017-12-20T00:54:22.717Z,82.89
2017-12-20T00:55:32.767Z,83.08
2017-12-20T00:56:42.818Z,83.08
2017-12-20T00:57:52.875Z,82.98
2017-12-20T00:59:02.667Z,82.7
2017-12-20T01:00:12.715Z,83.17
2017-12-20T01:01:22.763Z,82.89
2017-12-20T01:02:34.093Z,82.89
2017-12-20T01:03:44.146Z,82.79
2017-12-20T01:04:54.198Z,82.89
2017-12-20T01:06:03.983Z,82.89
2017-12-20T01:07:14.040Z,82.89
2017-12-20T01:08:23.856Z,82.89
2017-12-20T01:09:33.906Z,83.08
2017-12-20T01:10:43.950Z,83.08
2017-12-20T01:11:53.492Z,83.08
2017-12-20T01:13:03.302Z,83.08
2017-12-20T01:14:13.351Z,83.08
2017-12-20T01:15:23.152Z,82.79
2017-12-20T01:16:32.956Z,82.89
2017-12-20T01:17:43.010Z,82.7
2017-12-20T01:18:52.274Z,82.89
2017-12-20T01:20:02.371Z,83.08
2017-12-20T01:21:11.952Z,82.89
2017-12-20T01:22:22.017Z,83.17
2017-12-20T01:23:32.067Z,83.08
2017-12-20T01:24:41.597Z,82.98
2017-12-20T01:25:51.542Z,82.89
2017-12-20T01:27:01.600Z,82.98
2017-12-20T01:28:11.139Z,82.98
2017-12-20T01:29:21.190Z,82.89
2017-12-20T01:30:31.232Z,83.36
2017-12-20T01:31:41.067Z,82.98
2017-12-20T01:32:50.629Z,82.98
2017-12-20T01:34:00.666Z,83.36
2017-12-20T01:35:10.722Z,83.36
2017-12-20T01:36:20.774Z,83.36
2017-12-20T01:37:30.897Z,83.46
2017-12-20T01:38:39.894Z,83.46
2017-12-20T01:39:51.207Z,83.36
2017-12-20T01:41:00.995Z,83.08
2017-12-20T01:42:10.784Z,83.08
2017-12-20T01:43:21.466Z,82.89
2017-12-20T01:44:31.527Z,82.98
2017-12-20T01:45:41.632Z,82.89
2017-12-20T01:46:51.695Z,83.08
2017-12-20T01:48:01.737Z,83.17
2017-12-20T01:49:11.533Z,82.89
2017-12-20T01:50:21.321Z,83.27
2017-12-20T01:51:31.371Z,83.17
2017-12-20T01:52:41.480Z,83.08
2017-12-20T01:53:51.011Z,82.79
2017-12-20T01:55:00.284Z,83.36
2017-12-20T01:56:10.070Z,83.08
2017-12-20T01:57:19.872Z,83.46
2017-12-20T01:58:29.661Z,83.27
2017-12-20T01:59:39.710Z,83.27
2017-12-20T02:00:49.773Z,83.17
2017-12-20T02:01:59.623Z,83.08
2017-12-20T02:03:09.410Z,83.27
2017-12-20T02:04:19.197Z,83.17
2017-12-20T02:05:28.994Z,83.17
2017-12-20T02:06:39.092Z,83.36
2017-12-20T02:07:49.141Z,83.36
2017-12-20T02:08:59.180Z,83.46
2017-12-20T02:10:09.238Z,82.89
2017-12-20T02:11:18.770Z,82.89
2017-12-20T02:12:28.350Z,82.7
2017-12-20T02:13:38.407Z,83.27
2017-12-20T02:14:47.935Z,83.08
2017-12-20T02:15:57.992Z,83.17
2017-12-20T02:17:08.070Z,83.08
2017-12-20T02:18:17.870Z,83.08
2017-12-20T02:19:27.928Z,82.89
2017-12-20T02:20:37.992Z,83.08
2017-12-20T02:21:47.782Z,82.89
2017-12-20T02:22:57.829Z,83.36
2017-12-20T02:24:07.866Z,83.27
2017-12-20T02:25:17.909Z,83.27
2017-12-20T02:26:27.704Z,82.89
2017-12-20T02:27:37.493Z,82.89
2017-12-20T02:28:47.527Z,83.36
2017-12-20T02:29:57.572Z,83.46
2017-12-20T02:31:07.619Z,83.36
2017-12-20T02:32:17.696Z,82.79
2017-12-20T02:33:27.760Z,82.89
2017-12-20T02:34:37.593Z,83.17
2017-12-20T02:35:47.126Z,82.7
2017-12-20T02:36:56.926Z,83.08
2017-12-20T02:38:06.975Z,83.27
2017-12-20T02:39:17.022Z,82.89
2017-12-20T02:40:27.061Z,82.7
2017-12-20T02:41:37.114Z,82.7
2017-12-20T02:42:46.647Z,82.98
2017-12-20T02:43:56.698Z,83.08
2017-12-20T02:45:06.751Z,82.79
2017-12-20T02:46:16.554Z,83.27
2017-12-20T02:47:26.130Z,83.17
2017-12-20T02:48:36.198Z,83.17
2017-12-20T02:49:46.260Z,82.98
2017-12-20T02:50:56.340Z,82.98
2017-12-20T02:52:06.403Z,82.98
2017-12-20T02:53:15.981Z,82.98
2017-12-20T02:54:26.038Z,83.08
2017-12-20T02:55:36.094Z,82.98
2017-12-20T02:56:45.881Z,82.89
2017-12-20T02:57:55.938Z,82.89
2017-12-20T02:59:05.524Z,82.79
2017-12-20T03:00:15.047Z,83.08
2017-12-20T03:01:25.098Z,83.17
2017-12-20T03:02:34.882Z,83.17
2017-12-20T03:33:56.563Z,79.69
2017-12-20T03:35:06.349Z,80.07
2017-12-20T03:36:16.135Z,80.64
2017-12-20T03:37:25.932Z,82.06
2017-12-20T03:38:35.719Z,81.96
2017-12-20T03:39:45.507Z,82.91
2017-12-20T03:40:55.558Z,83.76
2017-12-20T03:42:05.610Z,84
2017-12-20T03:43:15.401Z,84.09
2017-12-20T03:44:25.438Z,84.19
2017-12-20T03:45:35.016Z,84.28
2017-12-20T03:46:44.801Z,84.32
2017-12-20T03:47:54.858Z,84.23
2017-12-20T03:49:04.698Z,84.23
2017-12-20T03:50:14.478Z,84.13
2017-12-20T03:51:24.062Z,84.04
2017-12-20T03:52:33.585Z,83.94
2017-12-20T03:53:43.424Z,84.04
2017-12-20T03:54:53.493Z,84.08
2017-12-20T03:56:03.011Z,83.7
2017-12-20T03:57:13.377Z,83.42
2017-12-20T03:58:23.188Z,83.32
2017-12-20T03:59:33.254Z,83.32
2017-12-20T04:00:43.311Z,83.61
2017-12-20T04:01:53.359Z,83.7
2017-12-20T04:03:03.262Z,83.89
2017-12-20T04:04:13.054Z,83.89
2017-12-20T04:05:22.584Z,83.51
2017-12-20T04:06:32.654Z,83.27
2017-12-20T04:07:42.728Z,83.08
2017-12-20T04:08:52.843Z,83.36
2017-12-20T04:10:02.643Z,83.27
2017-12-20T04:11:12.426Z,83.27
2017-12-20T04:12:22.490Z,83.17
2017-12-20T04:13:32.536Z,83.27
2017-12-20T04:14:42.587Z,83.27
2017-12-20T04:15:52.650Z,83.36
2017-12-20T04:17:02.709Z,83.17
2017-12-20T04:18:12.229Z,83.36
2017-12-20T04:19:22.305Z,83.08
2017-12-20T04:20:31.849Z,83.17
2017-12-20T04:21:41.904Z,82.79
2017-12-20T04:22:52.001Z,83.17
2017-12-20T04:24:02.106Z,83.08
2017-12-20T04:25:12.145Z,83.27
2017-12-20T04:26:22.193Z,83.08
2017-12-20T04:27:32.003Z,83.36
2017-12-20T04:28:41.780Z,83.17
2017-12-20T04:29:51.838Z,82.89
2017-12-20T04:31:01.898Z,82.98
2017-12-20T04:32:11.950Z,82.89
2017-12-20T04:33:22.024Z,82.98
2017-12-20T04:34:32.072Z,82.6
2017-12-20T04:35:42.129Z,82.7
2017-12-20T04:36:51.931Z,82.79
2017-12-20T04:38:01.732Z,83.27
2017-12-20T04:39:11.533Z,82.89
2017-12-20T04:40:21.321Z,83.08
2017-12-20T04:41:31.383Z,83.27
2017-12-20T04:42:40.916Z,83.27
2017-12-20T04:43:50.980Z,82.89
2017-12-20T04:45:00.789Z,83.36
2017-12-20T04:46:10.564Z,82.98
2017-12-20T04:47:20.616Z,82.79
2017-12-20T04:48:30.644Z,82.79
2017-12-20T04:49:40.752Z,83.17
2017-12-20T04:50:50.549Z,83.08
2017-12-20T04:52:00.593Z,83.08
2017-12-20T04:53:10.380Z,83.17
2017-12-20T04:54:19.908Z,82.89
2017-12-20T04:55:29.964Z,82.98
2017-12-20T04:56:40.026Z,82.98
2017-12-20T04:57:49.831Z,83.08
2017-12-20T04:58:59.875Z,82.89
2017-12-20T05:00:09.667Z,82.98
2017-12-20T05:01:19.194Z,82.98
2017-12-20T05:02:28.720Z,83.27
2017-12-20T05:03:38.811Z,83.17
2017-12-20T05:04:48.614Z,83.17
2017-12-20T05:05:58.135Z,83.17
2017-12-20T05:07:07.918Z,83.17
2017-12-20T05:08:17.704Z,83.27
2017-12-20T05:09:27.229Z,82.98
2017-12-20T05:10:37.026Z,83.08
2017-12-20T05:11:47.081Z,82.89
2017-12-20T05:12:57.142Z,83.08
2017-12-20T05:14:06.729Z,82.98
2017-12-20T05:15:16.784Z,82.98
2017-12-20T05:16:26.310Z,83.27
2017-12-20T05:17:36.117Z,82.89
2017-12-20T05:18:46.166Z,83.08
2017-12-20T05:19:55.941Z,83.08
2017-12-20T05:21:05.462Z,83.08
2017-12-20T05:22:14.989Z,83.08
2017-12-20T05:23:25.058Z,82.79
2017-12-20T05:24:34.909Z,82.89
2017-12-20T05:25:44.980Z,82.98
2017-12-20T05:26:55.051Z,82.98
2017-12-20T05:28:05.107Z,82.7
2017-12-20T05:29:15.225Z,83.27
2017-12-20T05:30:25.072Z,82.98
2017-12-20T05:31:34.850Z,82.79
2017-12-20T05:32:44.891Z,82.98
2017-12-20T05:33:54.678Z,82.79
2017-12-20T05:35:04.457Z,82.89
2017-12-20T05:36:14.520Z,82.79
2017-12-20T05:37:24.581Z,83.08
2017-12-20T05:38:34.635Z,83.17
2017-12-20T05:39:44.689Z,82.89
2017-12-20T05:40:54.753Z,83.17
2017-12-20T05:42:04.848Z,83.27
2017-12-20T05:43:14.903Z,82.89
2017-12-20T05:44:24.719Z,82.79
2017-12-20T05:45:34.513Z,82.89
2017-12-20T05:46:44.571Z,82.79
2017-12-20T05:47:54.679Z,83.17
2017-12-20T05:49:04.194Z,83.17
2017-12-20T05:50:13.984Z,82.79
2017-12-20T05:51:24.023Z,82.79
2017-12-20T05:52:33.574Z,83.17
2017-12-20T05:53:43.362Z,83.17
2017-12-20T05:54:53.160Z,82.79
2017-12-20T05:56:03.220Z,83.08
2017-12-20T05:57:13.015Z,83.17
2017-12-20T05:58:23.059Z,83.08
2017-12-20T05:59:32.852Z,82.98
2017-12-20T06:00:42.631Z,83.17
2017-12-20T06:01:53.725Z,82.98
2017-12-20T06:03:03.535Z,82.79
2017-12-20T06:04:13.448Z,82.98
2017-12-20T06:05:23.222Z,83.08
2017-12-20T06:06:33.005Z,82.98
2017-12-20T06:07:42.792Z,82.98
2017-12-20T06:08:52.305Z,83.08
2017-12-20T06:10:02.092Z,82.89
2017-12-20T06:11:12.144Z,83.08
2017-12-20T06:12:21.942Z,83.17
2017-12-20T06:13:31.736Z,82.79
2017-12-20T06:14:41.805Z,82.89
2017-12-20T06:15:51.851Z,83.17
2017-12-20T06:17:01.907Z,83.08
2017-12-20T06:18:11.685Z,83.08
2017-12-20T06:19:21.466Z,83.17
2017-12-20T06:20:31.522Z,83.17
2017-12-20T06:21:41.638Z,82.79
2017-12-20T06:22:51.683Z,83.08
2017-12-20T06:24:01.738Z,83.12
2017-12-20T06:25:11.531Z,82.79
2017-12-20T06:26:21.583Z,82.98
2017-12-20T06:27:31.677Z,83.03
2017-12-20T06:28:41.742Z,82.98
2017-12-20T06:29:51.796Z,83.46
2017-12-20T06:31:01.854Z,83.12
2017-12-20T06:32:11.910Z,82.93
2017-12-20T06:33:21.961Z,83.31
2017-12-20T06:34:32.030Z,82.74
2017-12-20T06:35:42.091Z,83.31
2017-12-20T06:36:52.138Z,83.5
2017-12-20T06:38:02.183Z,83.03
2017-12-20T06:39:12.290Z,82.89
2017-12-20T06:40:22.350Z,82.93
2017-12-20T06:41:32.148Z,83.12
2017-12-20T06:42:42.186Z,83.22
2017-12-20T06:43:51.992Z,83.22
2017-12-20T06:45:02.086Z,82.84
2017-12-20T06:46:11.872Z,82.93
2017-12-20T06:47:21.662Z,82.93
2017-12-20T06:48:30.922Z,82.93
2017-12-20T06:49:40.455Z,83.03
2017-12-20T06:50:50.512Z,83.03
2017-12-20T06:52:00.571Z,83.22
2017-12-20T06:53:10.631Z,83.4
2017-12-20T06:54:20.432Z,82.93
2017-12-20T06:55:30.479Z,83.22
2017-12-20T06:56:40.581Z,83.22
2017-12-20T06:57:50.625Z,82.93
2017-12-20T06:59:00.695Z,83.22
2017-12-20T07:00:10.783Z,82.93
2017-12-20T07:01:21.874Z,83.12
2017-12-20T07:02:31.925Z,83.12
2017-12-20T07:03:41.730Z,82.93
2017-12-20T07:04:51.790Z,82.93
2017-12-20T07:06:01.836Z,83.03
2017-12-20T07:07:11.894Z,83.31
2017-12-20T07:08:22.005Z,82.93
2017-12-20T07:09:32.057Z,83.31
2017-12-20T07:10:42.102Z,83.03
2017-12-20T07:11:51.890Z,83.31
2017-12-20T07:13:01.963Z,82.93
2017-12-20T07:14:12.079Z,83.12
2017-12-20T07:15:21.894Z,82.93
2017-12-20T07:16:32.021Z,82.84
2017-12-20T07:17:42.082Z,83.03
2017-12-20T07:18:52.130Z,82.93
2017-12-20T07:20:01.971Z,83.03
2017-12-20T07:21:12.055Z,83.12
2017-12-20T07:22:22.098Z,83.03
2017-12-20T07:23:32.158Z,82.93
2017-12-20T07:24:41.937Z,82.93
2017-12-20T07:25:51.187Z,83.03
2017-12-20T07:27:01.231Z,82.93
2017-12-20T07:28:11.299Z,83.4
2017-12-20T07:29:21.082Z,83.03
2017-12-20T07:30:31.150Z,83.4
2017-12-20T07:31:41.226Z,83.22
2017-12-20T07:32:51.020Z,83.22
2017-12-20T07:34:01.082Z,83.22
2017-12-20T07:35:11.116Z,83.4
2017-12-20T07:36:20.901Z,83.12
2017-12-20T07:37:30.961Z,83.4
2017-12-20T07:38:41.021Z,83.4
2017-12-20T07:39:50.808Z,83.22
2017-12-20T07:41:00.607Z,83.22
2017-12-20T07:42:10.139Z,83.22
2017-12-20T07:43:20.240Z,83.03
2017-12-20T07:44:30.303Z,83.4
2017-12-20T07:45:40.357Z,83.4
2017-12-20T07:46:50.411Z,83.4
2017-12-20T07:47:59.935Z,83.31
2017-12-20T07:49:09.487Z,82.84
2017-12-20T07:50:19.013Z,83.4
2017-12-20T07:51:28.819Z,83.22
2017-12-20T07:52:38.909Z,83.22
2017-12-20T07:53:48.691Z,83.22
2017-12-20T07:54:58.784Z,83.22
2017-12-20T07:56:08.830Z,83.22
2017-12-20T07:57:18.367Z,83.4
2017-12-20T07:58:28.406Z,83.22
2017-12-20T07:59:38.467Z,83.4
2017-12-20T08:00:48.322Z,82.93
2017-12-20T08:01:57.855Z,82.74
2017-12-20T08:03:07.947Z,82.93
2017-12-20T08:04:18.003Z,82.93
2017-12-20T08:05:27.784Z,82.84
2017-12-20T08:06:37.833Z,82.93
2017-12-20T08:07:47.624Z,82.84
2017-12-20T08:08:57.155Z,83.12
2017-12-20T08:10:07.206Z,82.93
2017-12-20T08:11:16.999Z,82.93
2017-12-20T08:12:26.556Z,83.12
2017-12-20T08:13:36.334Z,82.93
2017-12-20T08:14:46.386Z,83.12
2017-12-20T08:15:56.492Z,83.22
2017-12-20T08:17:06.021Z,83.03
2017-12-20T08:18:15.803Z,82.93
2017-12-20T08:19:25.661Z,82.84
2017-12-20T08:20:35.718Z,83.31
2017-12-20T08:21:45.225Z,82.84
2017-12-20T08:22:55.030Z,83.4
2017-12-20T08:24:05.135Z,82.84
2017-12-20T08:25:14.918Z,82.84
2017-12-20T08:26:24.727Z,82.93
2017-12-20T08:27:34.768Z,82.93
2017-12-20T08:28:44.620Z,83.4
2017-12-20T08:29:54.701Z,82.93
2017-12-20T08:31:04.748Z,82.93
2017-12-20T08:32:14.554Z,82.93
2017-12-20T08:33:24.605Z,82.84
2017-12-20T08:34:34.659Z,82.93
2017-12-20T08:35:44.724Z,82.93
2017-12-20T08:36:54.790Z,82.93
2017-12-20T08:38:04.587Z,82.74
2017-12-20T08:39:15.165Z,82.74
2017-12-20T08:40:25.229Z,82.74
2017-12-20T08:41:34.764Z,83.03
2017-12-20T08:42:44.882Z,83.22
2017-12-20T08:43:54.926Z,83.12
2017-12-20T08:45:04.733Z,83.12
2017-12-20T08:46:14.823Z,83.03
2017-12-20T08:47:24.598Z,83.16
2017-12-20T08:48:34.712Z,83.26
2017-12-20T08:49:44.767Z,82.69
2017-12-20T08:50:54.830Z,82.78
2017-12-20T08:52:04.902Z,82.88
2017-12-20T08:53:14.448Z,82.78
2017-12-20T08:54:24.279Z,82.78
2017-12-20T08:55:34.321Z,83.26
2017-12-20T08:56:43.844Z,83.26
2017-12-20T08:57:55.688Z,83.26
2017-12-20T08:59:05.487Z,83.26
2017-12-20T09:00:15.117Z,83.26
2017-12-20T09:01:24.661Z,82.59
2017-12-20T09:02:34.722Z,82.88
2017-12-20T09:03:44.884Z,82.59
2017-12-20T09:04:55.488Z,82.88
2017-12-20T09:06:09.517Z,82.69
2017-12-20T09:07:23.073Z,82.97
2017-12-20T09:08:33.126Z,82.88
2017-12-20T09:09:43.181Z,83.07
2017-12-20T09:10:52.710Z,82.97
2017-12-20T09:12:02.505Z,83.01
2017-12-20T09:13:12.591Z,82.35
2017-12-20T09:14:22.399Z,82.35
2017-12-20T09:15:32.201Z,82.97
2017-12-20T09:16:41.752Z,82.78
2017-12-20T09:17:51.334Z,82.97
2017-12-20T09:19:01.409Z,82.78
2017-12-20T09:20:11.468Z,82.82
2017-12-20T09:21:21.281Z,82.73
2017-12-20T09:22:31.082Z,82.64
2017-12-20T09:23:40.614Z,82.82
2017-12-20T09:24:50.400Z,82.82
2017-12-20T09:26:00.454Z,83.01
2017-12-20T09:27:10.508Z,82.82
2017-12-20T09:28:20.553Z,83.01
2017-12-20T09:29:30.660Z,82.45
2017-12-20T09:30:40.442Z,83.11
2017-12-20T09:31:50.230Z,82.64
2017-12-20T09:32:59.757Z,82.73
2017-12-20T09:34:09.544Z,82.92
2017-12-20T09:35:19.617Z,82.82
2017-12-20T09:36:29.421Z,83.3
2017-12-20T09:37:39.472Z,82.73
2017-12-20T09:38:49.529Z,82.73
2017-12-20T09:39:59.610Z,82.64
2017-12-20T09:41:09.412Z,82.92
2017-12-20T09:42:19.668Z,82.82
2017-12-20T09:43:29.771Z,82.82
2017-12-20T09:44:39.825Z,82.73
2017-12-20T09:45:49.871Z,82.92
2017-12-20T09:46:59.696Z,82.54
2017-12-20T09:48:09.746Z,83.11
2017-12-20T09:49:19.804Z,82.92
2017-12-20T09:50:29.595Z,83.11
2017-12-20T09:51:39.652Z,82.45
2017-12-20T09:52:49.701Z,82.29
2017-12-20T09:53:59.521Z,82.64
2017-12-20T09:55:09.059Z,82.49
2017-12-20T09:56:19.642Z,82.68
2017-12-20T09:57:30.359Z,82.49
2017-12-20T09:58:40.449Z,82.68
2017-12-20T09:59:50.257Z,82.49
2017-12-20T10:01:00.343Z,82.64
2017-12-20T10:02:10.162Z,82.68
2017-12-20T10:03:19.970Z,82.68
2017-12-20T10:04:30.041Z,82.29
2017-12-20T10:05:40.102Z,82.29
2017-12-20T10:06:50.162Z,82.29
2017-12-20T10:07:59.712Z,82.49
2017-12-20T10:09:09.776Z,82.64
2017-12-20T10:10:19.848Z,82.29
2017-12-20T10:11:29.641Z,82.29
2017-12-20T10:12:39.768Z,82.49
2017-12-20T10:13:49.564Z,83.11
2017-12-20T10:14:59.624Z,82.87
2017-12-20T10:16:09.455Z,83.01
2017-12-20T10:17:19.518Z,82.92
2017-12-20T10:18:29.326Z,83.11
2017-12-20T10:19:39.129Z,83.01
2017-12-20T10:20:48.929Z,83.11
2017-12-20T10:21:58.728Z,83.01
2017-12-20T10:23:08.525Z,83.01
2017-12-20T10:24:18.328Z,82.16
2017-12-20T10:25:28.385Z,83.15
2017-12-20T10:26:38.488Z,83.2
2017-12-20T10:27:48.685Z,83.2
2017-12-20T10:28:58.752Z,82.49
2017-12-20T10:30:09.054Z,82.49
2017-12-20T10:31:19.116Z,82.29
2017-12-20T10:32:28.915Z,82.39
2017-12-20T10:33:38.738Z,82.45
2017-12-20T10:34:48.830Z,82.26
2017-12-20T10:35:58.370Z,82.29
2017-12-20T10:37:08.444Z,82.35
2017-12-20T10:38:18.240Z,83.11
2017-12-20T10:39:28.048Z,83.01
2017-12-20T10:40:38.116Z,83.01
2017-12-20T10:41:47.960Z,83.11
2017-12-20T10:42:58.025Z,83.11
2017-12-20T10:44:08.146Z,83.11
2017-12-20T10:45:18.216Z,82.92
2017-12-20T10:46:28.021Z,83.01
2017-12-20T10:47:37.811Z,82.92
2017-12-20T10:48:47.626Z,83.01
2017-12-20T10:49:57.422Z,82.35
2017-12-20T10:51:06.971Z,82.26
2017-12-20T10:52:16.753Z,82.64
2017-12-20T10:53:26.869Z,82.58
2017-12-20T10:54:36.930Z,82.58
2017-12-20T10:55:46.708Z,82.68
2017-12-20T10:56:56.754Z,82.68
2017-12-20T10:58:06.561Z,82.58
2017-12-20T10:59:16.647Z,81.92
2017-12-20T11:00:26.700Z,81.73
2017-12-20T11:01:36.495Z,82.01
2017-12-20T11:02:46.564Z,81.82
2017-12-20T11:03:56.100Z,82.2
2017-12-20T11:05:06.175Z,82.39
2017-12-20T11:06:16.239Z,81.73
2017-12-20T11:07:26.315Z,81.92
2017-12-20T11:08:35.570Z,82.01
2017-12-20T11:09:45.628Z,82.2
2017-12-20T11:10:55.751Z,82.29
2017-12-20T11:12:05.550Z,82.01
2017-12-20T11:13:15.381Z,82.39
2017-12-20T11:14:25.433Z,82.1
2017-12-20T11:15:35.716Z,82.01
2017-12-20T11:16:45.516Z,81.92
2017-12-20T11:17:55.574Z,82.15
2017-12-20T11:19:05.370Z,81.96
2017-12-20T11:20:15.450Z,82.15
2017-12-20T11:21:24.971Z,82.24
2017-12-20T11:22:35.031Z,82.15
2017-12-20T11:23:45.077Z,81.86
2017-12-20T11:24:55.169Z,82.24
2017-12-20T11:26:05.246Z,82.05
2017-12-20T11:27:14.833Z,82.15
2017-12-20T11:28:24.904Z,82.05
2017-12-20T11:29:35.802Z,82.05
2017-12-20T11:30:46.469Z,82.05
2017-12-20T11:31:56.261Z,82.53
2017-12-20T11:33:06.979Z,82.15
2017-12-20T11:34:17.005Z,82.53
2017-12-20T11:35:26.821Z,82.62
2017-12-20T11:36:36.367Z,82.81
2017-12-20T11:37:46.450Z,82.24
2017-12-20T11:38:56.296Z,82.34
2017-12-20T11:40:06.358Z,82.43
2017-12-20T11:41:16.424Z,82.53
2017-12-20T11:42:26.228Z,82.34
2017-12-20T11:43:35.749Z,82.43
2017-12-20T11:44:45.816Z,82.53
2017-12-20T11:45:55.372Z,82.43
2017-12-20T11:47:05.162Z,82.53
2017-12-20T11:48:14.726Z,82.34
2017-12-20T11:49:24.266Z,83.19
2017-12-20T11:50:34.120Z,82.43
2017-12-20T11:51:44.187Z,82.53
2017-12-20T11:52:53.756Z,82.71
2017-12-20T11:54:03.819Z,82.34
2017-12-20T11:55:13.631Z,82.71
2017-12-20T11:56:23.706Z,82.34
2017-12-20T11:57:33.765Z,83.19
2017-12-20T11:58:43.553Z,83.1
2017-12-20T11:59:53.377Z,83.1
2017-12-20T12:01:03.189Z,82.91
2017-12-20T12:02:13.255Z,82.71
2017-12-20T12:03:23.314Z,82.81
2017-12-20T12:04:33.386Z,82.91
2017-12-20T12:05:43.446Z,83.1
2017-12-20T12:06:53.513Z,82.91
2017-12-20T12:08:03.619Z,83
2017-12-20T12:09:14.192Z,83.1
2017-12-20T12:10:24.004Z,83.1
2017-12-20T12:11:34.064Z,82.71
2017-12-20T12:12:44.153Z,82.71
2017-12-20T12:13:55.263Z,82.71
2017-12-20T12:15:05.085Z,82.71
2017-12-20T12:16:14.876Z,82.71
2017-12-20T12:17:24.953Z,83.1
2017-12-20T12:18:35.014Z,82.71
2017-12-20T12:19:44.901Z,82.91
2017-12-20T12:20:54.155Z,83
2017-12-20T12:22:04.250Z,83.1
2017-12-20T12:23:14.074Z,83.1
2017-12-20T12:24:23.864Z,82.91
2017-12-20T12:25:33.932Z,82.91
2017-12-20T12:26:43.480Z,83.29
2017-12-20T12:27:53.310Z,82.77
2017-12-20T12:29:02.840Z,82.68
2017-12-20T12:30:12.904Z,83
2017-12-20T12:31:23.006Z,82.81
2017-12-20T12:32:32.815Z,82.91
2017-12-20T12:33:42.090Z,83.06
2017-12-20T12:34:52.167Z,82.77
2017-12-20T12:36:01.974Z,83.1
2017-12-20T12:37:11.815Z,83.1
2017-12-20T12:38:21.880Z,82.91
2017-12-20T12:39:31.944Z,83
2017-12-20T12:40:41.787Z,82.91
2017-12-20T12:41:51.849Z,82.91
2017-12-20T12:43:01.980Z,83.19
2017-12-20T12:44:12.077Z,83.1
2017-12-20T12:45:21.613Z,83.19
2017-12-20T12:46:31.422Z,82.91
2017-12-20T12:47:41.506Z,83.1
2017-12-20T12:48:51.660Z,82.91
2017-12-20T12:50:01.452Z,82.71
2017-12-20T12:51:11.725Z,83.19
2017-12-20T12:52:21.533Z,83.19
2017-12-20T12:53:31.354Z,83.1
2017-12-20T12:54:41.479Z,82.71
2017-12-20T12:55:51.536Z,83.1
2017-12-20T12:57:01.334Z,82.71
2017-12-20T12:58:11.405Z,82.91
2017-12-20T12:59:21.475Z,83
2017-12-20T13:00:31.060Z,82.58
2017-12-20T13:01:41.111Z,83.25
2017-12-20T13:02:50.910Z,83.34
2017-12-20T13:04:00.972Z,83.44
2017-12-20T13:05:10.757Z,83.25
2017-12-20T13:06:20.810Z,83.34
2017-12-20T13:07:30.331Z,83.34
2017-12-20T13:08:39.868Z,83
2017-12-20T13:09:49.922Z,83.06
2017-12-20T13:10:59.748Z,83.44
2017-12-20T13:12:09.285Z,83.06
2017-12-20T13:13:19.087Z,82.87
2017-12-20T13:14:29.160Z,83.06
2017-12-20T13:15:38.447Z,83.06
2017-12-20T13:16:48.508Z,83.06
2017-12-20T13:17:58.580Z,83.53
2017-12-20T13:19:08.127Z,83.15
2017-12-20T13:20:18.208Z,82.77
2017-12-20T13:21:28.005Z,82.96
2017-12-20T13:22:38.063Z,83.34
2017-12-20T13:23:47.931Z,83.44
2017-12-20T13:24:58.001Z,83.91
2017-12-20T13:26:07.818Z,83.82
2017-12-20T13:27:17.879Z,84.01
2017-12-20T13:28:27.942Z,84.01
2017-12-20T13:29:38.664Z,83.44
2017-12-20T13:30:49.141Z,83.44
2017-12-20T13:31:59.593Z,84.1
2017-12-20T13:33:09.395Z,83.34
2017-12-20T13:34:19.466Z,83.44
2017-12-20T13:35:29.525Z,83.44
2017-12-20T13:36:39.335Z,83.97
2017-12-20T13:37:49.129Z,83.39
2017-12-20T13:38:59.196Z,83.49
2017-12-20T13:40:09.242Z,83.39
2017-12-20T13:41:19.426Z,84.06
2017-12-20T13:42:29.217Z,83.3
2017-12-20T13:43:39.276Z,83.49
2017-12-20T13:44:49.344Z,83.59
2017-12-20T13:45:59.430Z,83.68
2017-12-20T13:47:09.318Z,83.59
2017-12-20T13:48:19.423Z,83.87
2017-12-20T13:49:29.459Z,83.39
2017-12-20T13:50:39.008Z,83.3
2017-12-20T13:51:49.057Z,84.06
2017-12-20T13:52:59.169Z,83.68
2017-12-20T13:54:09.220Z,83.39
2017-12-20T13:55:19.011Z,84.16
2017-12-20T13:56:28.574Z,83.39
2017-12-20T13:57:38.632Z,83.39
2017-12-20T13:58:48.483Z,83.39
2017-12-20T13:59:57.745Z,83.39
2017-12-20T14:01:07.875Z,83.39
2017-12-20T14:02:17.679Z,83.97
2017-12-20T14:03:27.737Z,83.39
2017-12-20T14:04:37.361Z,83.97
2017-12-20T14:05:47.422Z,83.87
2017-12-20T14:06:58.147Z,83.39
2017-12-20T14:08:08.251Z,83.78
2017-12-20T14:09:18.062Z,83.49
2017-12-20T14:10:28.123Z,84.06
2017-12-20T14:11:38.199Z,83.3
2017-12-20T14:12:48.250Z,83.49
2017-12-20T14:13:57.782Z,83.68
2017-12-20T14:15:07.834Z,83.87
2017-12-20T14:16:17.936Z,83.78
2017-12-20T14:17:29.505Z,83.78
2017-12-20T14:18:39.568Z,83.68
2017-12-20T14:19:49.675Z,83.78
2017-12-20T14:20:59.203Z,83.78
2017-12-20T14:22:09.008Z,84.16
2017-12-20T14:23:18.275Z,84.06
2017-12-20T14:24:28.349Z,83.78
2017-12-20T14:25:38.146Z,83.68
2017-12-20T14:26:48.235Z,83.87
2017-12-20T14:27:57.533Z,83.68
2017-12-20T14:29:07.586Z,83.49
2017-12-20T14:30:17.404Z,83.49
2017-12-20T14:31:27.211Z,83.49
2017-12-20T14:32:36.990Z,83.59
2017-12-20T14:33:46.839Z,83.49
2017-12-20T14:34:56.918Z,83.68
2017-12-20T14:36:06.955Z,83.97
2017-12-20T14:37:16.993Z,83.68
2017-12-20T14:38:27.047Z,83.45
2017-12-20T14:39:37.108Z,83.49
2017-12-20T14:40:47.165Z,83.54
2017-12-20T14:41:57.228Z,83.54
2017-12-20T14:43:07.280Z,83.49
2017-12-20T14:44:16.832Z,83.68
2017-12-20T14:45:26.984Z,83.49
2017-12-20T14:46:36.799Z,83.68
2017-12-20T14:47:46.356Z,83.87
2017-12-20T14:48:56.425Z,83.87
2017-12-20T14:50:06.493Z,83.78
2017-12-20T14:51:16.659Z,83.78
2017-12-20T14:52:26.725Z,83.59
2017-12-20T14:53:36.796Z,83.78
2017-12-20T14:54:46.857Z,83.73
2017-12-20T14:55:56.670Z,83.64
2017-12-20T14:57:06.514Z,83.59
2017-12-20T14:58:16.299Z,83.49
2017-12-20T14:59:26.407Z,83.49
2017-12-20T15:00:36.216Z,83.64
2017-12-20T15:01:46.298Z,83.54
2017-12-20T15:02:56.432Z,83.64
2017-12-20T15:04:06.232Z,83.64
2017-12-20T15:05:16.311Z,83.73
2017-12-20T15:06:25.860Z,83.73
2017-12-20T15:07:35.923Z,83.73
2017-12-20T15:08:45.993Z,83.64
2017-12-20T15:09:56.040Z,83.73
2017-12-20T15:11:05.849Z,83.64
2017-12-20T15:12:15.663Z,83.64
2017-12-20T15:13:25.707Z,83.64
2017-12-20T15:14:35.551Z,83.73
2017-12-20T15:15:45.355Z,83.64
2017-12-20T15:16:54.899Z,83.64
2017-12-20T15:18:04.967Z,83.64
2017-12-20T15:19:14.792Z,83.36
2017-12-20T15:20:24.680Z,83.54
2017-12-20T15:21:34.470Z,83.45
2017-12-20T15:22:44.584Z,83.73
2017-12-20T15:23:54.672Z,83.45
2017-12-20T15:25:04.739Z,83.45
2017-12-20T15:26:14.806Z,83.64
2017-12-20T15:27:24.619Z,83.64
2017-12-20T15:28:34.722Z,83.45
2017-12-20T15:29:44.695Z,83.45
2017-12-20T15:30:54.695Z,83.73
2017-12-20T15:32:05.174Z,83.45
2017-12-20T15:33:15.280Z,83.45